Time;durP1;ratioP1;P1;durP2;ratioP2;P2;SDS_P1;SDS_P2;PMS_P1;PMS_P2;Temp;Humidity;BMP_temperature;BMP_pressure;BME280_temperature;BME280_humidity;BME280_pressure;Samples;Min_cycle;Max_cycle;Signal;HPM_P1;HPM_P2
2022/06/08 00:01:50;;;;;;;;;;;29.30;90.00;;;;;;5098247;28;19905;-57
2022/06/08 00:04:17;;;;;;;;;;;29.30;90.10;;;;;;5100552;28;19908;-58
2022/06/08 00:06:44;;;;;;;;;;;29.30;90.30;;;;;;5093720;28;20085;-53
2022/06/08 00:09:10;;;;;;;;;;;29.20;90.40;;;;;;5097413;28;19915;-55
2022/06/08 00:11:37;;;;;;;;;;;29.20;90.60;;;;;;5100947;28;19903;-54
2022/06/08 00:14:03;;;;;;;;;;;29.10;90.80;;;;;;5094778;28;19919;-51
2022/06/08 00:16:29;;;;;;;;;;;29.10;91.10;;;;;;5104437;28;20009;-53
2022/06/08 00:18:56;;;;;;;;;;;29.10;91.10;;;;;;5098349;28;19915;-54
2022/06/08 00:21:22;;;;;;;;;;;29.00;91.10;;;;;;5099830;28;19903;-53
2022/06/08 00:23:48;;;;;;;;;;;29.00;91.00;;;;;;5102981;28;19950;-54
2022/06/08 00:26:14;;;;;;;;;;;29.00;91.10;;;;;;5098299;28;20199;-56
2022/06/08 00:28:40;;;;;;;;;;;28.90;91.20;;;;;;5102825;28;20242;-52
2022/06/08 00:31:07;;;;;;;;;;;29.00;91.10;;;;;;5099211;28;20220;-52
2022/06/08 00:33:33;;;;;;;;;;;29.00;91.20;;;;;;5104096;28;19912;-53
2022/06/08 00:35:59;;;;;;;;;;;29.00;91.10;;;;;;5094808;28;19980;-54
2022/06/08 00:38:25;;;;;;;;;;;29.00;91.20;;;;;;5096068;28;19916;-53
2022/06/08 00:40:51;;;;;;;;;;;29.00;91.30;;;;;;5097580;28;20165;-53
2022/06/08 00:43:18;;;;;;;;;;;28.90;91.30;;;;;;5095228;28;19905;-52
2022/06/08 00:45:44;;;;;;;;;;;28.80;91.50;;;;;;5083534;28;19904;-54
2022/06/08 00:48:10;;;;;;;;;;;28.70;91.40;;;;;;5081750;28;19905;-54
2022/06/08 00:50:42;;;;;;;;;;;28.80;91.60;;;;;;5082696;28;20204;-54
2022/06/08 00:53:09;;;;;;;;;;;28.80;91.60;;;;;;5074808;28;20161;-52
2022/06/08 00:55:38;;;;;;;;;;;28.80;91.70;;;;;;5090893;28;19904;-55
2022/06/08 00:58:06;;;;;;;;;;;28.80;91.80;;;;;;5093145;28;20116;-53
2022/06/08 01:00:38;;;;;;;;;;;28.70;91.70;;;;;;5095315;28;20084;-53
2022/06/08 01:03:04;;;;;;;;;;;28.70;91.80;;;;;;5093831;28;19908;-55
2022/06/08 01:05:35;;;;;;;;;;;28.70;91.70;;;;;;5096187;28;19904;-56
2022/06/08 01:08:22;;;;;;;;;;;28.80;91.80;;;;;;5083634;28;19971;-53
2022/06/08 01:10:50;;;;;;;;;;;28.70;91.70;;;;;;5084040;28;19927;-55
2022/06/08 01:13:16;;;;;;;;;;;28.60;91.50;;;;;;5083661;28;19958;-54
2022/06/08 01:15:43;;;;;;;;;;;28.60;91.60;;;;;;5083965;28;19935;-55
2022/06/08 01:18:09;;;;;;;;;;;28.60;91.60;;;;;;5083085;28;20100;-55
2022/06/08 01:20:42;;;;;;;;;;;28.60;91.70;;;;;;5084217;28;20087;-53
2022/06/08 01:23:08;;;;;;;;;;;28.60;91.70;;;;;;5082947;28;19908;-54
2022/06/08 01:25:39;;;;;;;;;;;28.50;91.80;;;;;;5103860;28;20203;-55
2022/06/08 01:28:10;;;;;;;;;;;28.50;91.90;;;;;;5103633;28;19949;-53
2022/06/08 01:30:45;;;;;;;;;;;28.50;91.70;;;;;;5104295;28;19904;-55
2022/06/08 01:33:14;;;;;;;;;;;28.40;91.70;;;;;;5104063;28;20100;-56
2022/06/08 01:35:43;;;;;;;;;;;28.50;91.80;;;;;;5099857;28;19912;-56
2022/06/08 01:38:28;;;;;;;;;;;28.50;91.70;;;;;;5090226;28;19957;-56
2022/06/08 01:41:03;;;;;;;;;;;28.50;91.80;;;;;;5107771;28;19911;-55
2022/06/08 01:43:32;;;;;;;;;;;28.40;91.50;;;;;;5103976;28;19912;-56
2022/06/08 01:46:11;;;;;;;;;;;28.40;91.60;;;;;;5106745;28;19904;-57
2022/06/08 01:48:37;;;;;;;;;;;28.30;91.70;;;;;;5100335;28;19988;-56
2022/06/08 01:51:24;;;;;;;;;;;28.30;91.70;;;;;;5107832;28;19904;-53
2022/06/08 01:53:53;;;;;;;;;;;28.30;91.70;;;;;;5107131;28;19911;-56
2022/06/08 01:56:19;;;;;;;;;;;28.20;91.70;;;;;;5107394;28;20206;-58
2022/06/08 01:58:45;;;;;;;;;;;28.30;91.70;;;;;;5088663;28;19908;-57
2022/06/08 02:01:28;;;;;;;;;;;28.30;91.60;;;;;;5100211;28;19904;-55
2022/06/08 02:04:02;;;;;;;;;;;28.20;91.50;;;;;;5107363;28;19911;-55
2022/06/08 02:06:39;;;;;;;;;;;28.20;91.60;;;;;;5104635;28;19970;-55
2022/06/08 02:09:09;;;;;;;;;;;28.10;91.80;;;;;;5099751;28;20010;-55
2022/06/08 02:11:45;;;;;;;;;;;28.10;91.80;;;;;;5107321;28;19912;-56
2022/06/08 02:14:14;;;;;;;;;;;28.10;91.80;;;;;;5105151;28;19916;-57
2022/06/08 02:16:43;;;;;;;;;;;28.00;91.90;;;;;;5097043;28;19907;-56
2022/06/08 02:19:21;;;;;;;;;;;28.00;91.80;;;;;;5098795;28;19908;-54
2022/06/08 02:22:03;;;;;;;;;;;28.00;91.90;;;;;;5089667;28;19955;-52
2022/06/08 02:24:32;;;;;;;;;;;28.00;91.90;;;;;;5095770;28;19908;-55
2022/06/08 02:27:01;;;;;;;;;;;28.00;91.80;;;;;;5096269;28;19911;-56
2022/06/08 02:29:47;;;;;;;;;;;28.00;91.80;;;;;;5091390;28;20193;-53
2022/06/08 02:35:14;;;;;;;;;;;28.00;91.80;;;;;;5086482;28;19911;-56
2022/06/08 02:37:42;;;;;;;;;;;28.00;91.90;;;;;;5085782;28;19975;-57
2022/06/08 02:40:13;;;;;;;;;;;28.00;91.90;;;;;;5086234;28;20255;-58
2022/06/08 02:42:41;;;;;;;;;;;27.90;91.70;;;;;;5086011;28;20101;-57
2022/06/08 02:45:13;;;;;;;;;;;27.80;91.90;;;;;;5085153;28;19938;-60
2022/06/08 02:47:40;;;;;;;;;;;27.80;91.80;;;;;;5086334;28;19905;-57
2022/06/08 02:50:09;;;;;;;;;;;27.90;91.80;;;;;;5085443;28;19900;-53
2022/06/08 02:52:36;;;;;;;;;;;27.80;91.80;;;;;;5085759;28;19908;-55
2022/06/08 02:55:11;;;;;;;;;;;27.80;91.90;;;;;;5086096;28;19900;-54
2022/06/08 02:57:55;;;;;;;;;;;27.80;91.80;;;;;;5086004;28;19992;-58
2022/06/08 03:00:25;;;;;;;;;;;27.80;91.70;;;;;;5086001;28;19949;-55
2022/06/08 03:02:51;;;;;;;;;;;27.80;91.80;;;;;;5086263;28;19985;-62
2022/06/08 03:05:23;;;;;;;;;;;27.80;91.80;;;;;;5086068;28;19900;-60
2022/06/08 03:07:53;;;;;;;;;;;27.80;91.80;;;;;;5085540;28;19909;-54
2022/06/08 03:10:19;;;;;;;;;;;27.80;91.80;;;;;;5085908;28;19900;-58
2022/06/08 03:12:51;;;;;;;;;;;27.80;91.70;;;;;;5085779;28;19915;-55
2022/06/08 03:15:20;;;;;;;;;;;27.80;91.70;;;;;;5085614;28;20171;-58
2022/06/08 03:17:49;;;;;;;;;;;27.80;91.70;;;;;;5085659;28;19913;-58
2022/06/08 03:20:16;;;;;;;;;;;27.80;91.80;;;;;;5085506;28;19900;-59
2022/06/08 03:22:42;;;;;;;;;;;27.80;91.80;;;;;;5085193;28;20140;-59
2022/06/08 03:25:08;;;;;;;;;;;27.80;91.70;;;;;;5085575;28;19915;-59
2022/06/08 03:27:37;;;;;;;;;;;27.70;91.70;;;;;;5085345;28;20081;-58
2022/06/08 03:30:06;;;;;;;;;;;27.70;91.80;;;;;;5085659;28;19904;-58
2022/06/08 03:32:32;;;;;;;;;;;27.70;91.80;;;;;;5085418;28;19967;-58
2022/06/08 03:34:58;;;;;;;;;;;27.70;91.80;;;;;;5085188;28;20208;-58
2022/06/08 03:37:27;;;;;;;;;;;27.70;91.80;;;;;;5084751;28;19924;-54
2022/06/08 03:39:54;;;;;;;;;;;27.70;91.80;;;;;;5085174;28;19900;-56
2022/06/08 03:42:20;;;;;;;;;;;27.70;91.70;;;;;;5085082;28;19908;-56
2022/06/08 03:44:46;;;;;;;;;;;27.80;91.70;;;;;;5085017;28;20092;-56
2022/06/08 03:47:19;;;;;;;;;;;27.80;91.70;;;;;;5085081;28;20204;-55
2022/06/08 03:49:45;;;;;;;;;;;27.80;91.70;;;;;;5084778;28;19975;-54
2022/06/08 03:52:14;;;;;;;;;;;27.70;91.60;;;;;;5084788;28;19940;-53
2022/06/08 03:54:42;;;;;;;;;;;27.80;91.60;;;;;;5084933;28;20096;-54
2022/06/08 03:57:10;;;;;;;;;;;27.80;91.60;;;;;;5084468;28;20105;-57
2022/06/08 03:59:40;;;;;;;;;;;27.90;91.50;;;;;;5084940;28;19900;-53
2022/06/08 04:02:07;;;;;;;;;;;27.90;91.40;;;;;;5084842;28;19953;-56
2022/06/08 04:04:34;;;;;;;;;;;28.00;91.30;;;;;;5084730;28;19900;-54
2022/06/08 04:07:00;;;;;;;;;;;28.00;91.20;;;;;;5084903;28;19900;-54
2022/06/08 04:09:26;;;;;;;;;;;28.00;91.10;;;;;;5084268;28;19909;-59
2022/06/08 04:11:52;;;;;;;;;;;28.10;91.10;;;;;;5085142;28;19954;-53
2022/06/08 04:14:18;;;;;;;;;;;28.10;91.10;;;;;;5084783;28;19908;-54
2022/06/08 04:16:44;;;;;;;;;;;28.00;91.00;;;;;;5084948;28;19943;-54
2022/06/08 04:19:10;;;;;;;;;;;28.10;91.00;;;;;;5084612;28;19975;-55
2022/06/08 04:21:37;;;;;;;;;;;28.10;91.00;;;;;;5085156;28;19970;-54
2022/06/08 04:24:03;;;;;;;;;;;28.10;90.90;;;;;;5084521;28;19979;-53
2022/06/08 04:26:29;;;;;;;;;;;28.10;90.90;;;;;;5084996;28;19907;-55
2022/06/08 04:28:55;;;;;;;;;;;28.10;90.80;;;;;;5084680;28;19908;-60
2022/06/08 04:31:21;;;;;;;;;;;28.10;90.80;;;;;;5084934;28;19935;-57
2022/06/08 04:33:49;;;;;;;;;;;28.10;90.80;;;;;;5084406;28;19916;-53
2022/06/08 04:36:16;;;;;;;;;;;28.10;90.80;;;;;;5084494;28;19998;-56
2022/06/08 04:38:42;;;;;;;;;;;28.10;90.80;;;;;;5084387;28;19982;-54
2022/06/08 04:41:08;;;;;;;;;;;28.10;90.80;;;;;;5084653;28;19904;-54
2022/06/08 04:43:35;;;;;;;;;;;28.10;90.70;;;;;;5084378;28;19904;-55
2022/06/08 04:46:01;;;;;;;;;;;28.10;90.70;;;;;;5084600;28;19943;-54
2022/06/08 04:48:27;;;;;;;;;;;28.10;90.70;;;;;;5084385;28;19936;-59
2022/06/08 04:50:53;;;;;;;;;;;28.10;90.70;;;;;;5084384;28;19926;-55
2022/06/08 04:53:19;;;;;;;;;;;28.10;90.60;;;;;;5084568;28;19912;-57
2022/06/08 04:55:45;;;;;;;;;;;28.10;90.60;;;;;;5084532;28;19908;-55
2022/06/08 04:58:11;;;;;;;;;;;28.10;90.60;;;;;;5084194;28;20106;-54
2022/06/08 05:00:38;;;;;;;;;;;28.10;90.60;;;;;;5084589;28;19904;-54
2022/06/08 05:03:04;;;;;;;;;;;28.10;90.50;;;;;;5084286;28;20207;-57
2022/06/08 05:05:34;;;;;;;;;;;28.10;90.40;;;;;;5084180;28;19909;-53
2022/06/08 05:08:01;;;;;;;;;;;28.10;90.30;;;;;;5084722;28;19980;-53
2022/06/08 05:10:28;;;;;;;;;;;28.10;90.40;;;;;;5088441;28;19971;-54
2022/06/08 05:12:55;;;;;;;;;;;28.10;90.30;;;;;;5088091;28;19941;-53
2022/06/08 05:15:28;;;;;;;;;;;28.10;90.40;;;;;;5088375;28;20069;-54
2022/06/08 05:17:54;;;;;;;;;;;28.10;90.30;;;;;;5087989;28;19909;-54
2022/06/08 05:20:21;;;;;;;;;;;28.10;90.20;;;;;;5087984;28;20200;-54
2022/06/08 05:22:48;;;;;;;;;;;28.10;90.20;;;;;;5087909;28;19905;-54
2022/06/08 05:25:16;;;;;;;;;;;28.10;90.20;;;;;;5088304;28;19904;-53
2022/06/08 05:27:42;;;;;;;;;;;28.10;90.20;;;;;;5087883;28;20095;-55
2022/06/08 05:30:12;;;;;;;;;;;28.10;90.20;;;;;;5088022;28;19911;-55
2022/06/08 05:32:39;;;;;;;;;;;28.10;90.20;;;;;;5087886;28;19969;-54
2022/06/08 05:35:05;;;;;;;;;;;28.10;90.10;;;;;;5087628;28;19904;-56
2022/06/08 05:37:31;;;;;;;;;;;28.00;90.10;;;;;;5069682;28;19916;-53
2022/06/08 05:39:57;;;;;;;;;;;28.10;90.20;;;;;;5067609;28;20096;-53
2022/06/08 05:42:24;;;;;;;;;;;28.10;90.20;;;;;;5067679;28;20136;-55
2022/06/08 05:44:50;;;;;;;;;;;28.00;90.10;;;;;;5067310;28;19904;-55
2022/06/08 05:47:16;;;;;;;;;;;28.10;90.00;;;;;;5067603;28;20216;-54
2022/06/08 05:49:43;;;;;;;;;;;28.00;90.00;;;;;;5067248;28;20211;-55
2022/06/08 05:52:10;;;;;;;;;;;28.00;89.90;;;;;;5067503;28;19904;-56
2022/06/08 05:54:36;;;;;;;;;;;28.00;90.10;;;;;;5067898;28;19901;-59
2022/06/08 05:57:03;;;;;;;;;;;28.00;89.60;;;;;;5067968;28;19909;-54
2022/06/08 05:59:29;;;;;;;;;;;28.00;89.60;;;;;;5067675;28;19904;-54
2022/06/08 06:01:55;;;;;;;;;;;28.00;89.60;;;;;;5067817;28;19927;-55
2022/06/08 06:04:21;;;;;;;;;;;28.00;89.50;;;;;;5067151;28;20097;-52
2022/06/08 06:06:47;;;;;;;;;;;28.00;89.60;;;;;;5067517;28;20234;-55
2022/06/08 06:09:18;;;;;;;;;;;28.00;89.70;;;;;;5067021;28;19908;-54
2022/06/08 06:11:44;;;;;;;;;;;28.00;89.50;;;;;;5067216;28;19950;-64
2022/06/08 06:14:11;;;;;;;;;;;28.00;89.50;;;;;;5066925;28;19966;-55
2022/06/08 06:16:37;;;;;;;;;;;28.00;89.50;;;;;;5067172;28;20196;-54
2022/06/08 06:19:03;;;;;;;;;;;28.00;89.40;;;;;;5066575;28;19909;-51
2022/06/08 06:21:29;;;;;;;;;;;27.90;89.20;;;;;;5067365;28;19913;-54
2022/06/08 06:23:57;;;;;;;;;;;27.90;89.10;;;;;;5066811;28;19911;-55
2022/06/08 06:26:23;;;;;;;;;;;27.90;89.10;;;;;;5067115;28;19904;-56
2022/06/08 06:28:49;;;;;;;;;;;27.90;88.90;;;;;;5066563;28;19904;-56
2022/06/08 06:31:26;;;;;;;;;;;27.90;88.80;;;;;;5066519;28;19904;-61
2022/06/08 06:33:52;;;;;;;;;;;27.90;88.80;;;;;;5066891;28;19976;-55
2022/06/08 06:36:18;;;;;;;;;;;27.90;88.90;;;;;;5074634;28;20268;-55
2022/06/08 06:38:44;;;;;;;;;;;27.90;89.10;;;;;;5086778;28;19973;-53
2022/06/08 06:41:14;;;;;;;;;;;27.90;89.20;;;;;;5086851;28;20183;-51
2022/06/08 06:43:40;;;;;;;;;;;27.90;89.30;;;;;;5086687;28;19904;-53
2022/06/08 06:46:08;;;;;;;;;;;27.90;88.90;;;;;;5086697;28;20211;-51
2022/06/08 06:48:36;;;;;;;;;;;27.90;88.80;;;;;;5086207;28;19908;-52
2022/06/08 06:51:03;;;;;;;;;;;27.90;88.60;;;;;;5086515;28;19905;-53
2022/06/08 06:53:29;;;;;;;;;;;27.90;88.60;;;;;;5086173;28;19908;-54
2022/06/08 06:55:55;;;;;;;;;;;27.90;88.70;;;;;;5086481;28;19911;-55
2022/06/08 06:58:22;;;;;;;;;;;27.80;89.50;;;;;;5086690;28;19924;-56
2022/06/08 07:00:48;;;;;;;;;;;27.80;90.20;;;;;;5086279;28;19904;-61
2022/06/08 07:03:15;;;;;;;;;;;27.80;90.40;;;;;;5086201;28;19911;-56
2022/06/08 07:05:41;;;;;;;;;;;27.80;90.70;;;;;;5086245;28;19996;-55
2022/06/08 07:08:07;;;;;;;;;;;27.80;90.80;;;;;;5085908;28;19905;-54
2022/06/08 07:10:34;;;;;;;;;;;27.80;90.80;;;;;;5086153;28;19911;-46
2022/06/08 07:13:00;;;;;;;;;;;27.70;90.80;;;;;;5085872;28;20105;-48
2022/06/08 07:15:26;;;;;;;;;;;27.70;90.90;;;;;;5085765;28;20204;-49
2022/06/08 07:17:53;;;;;;;;;;;27.70;90.90;;;;;;5085752;28;19915;-49
2022/06/08 07:20:20;;;;;;;;;;;27.70;90.90;;;;;;5085730;28;19912;-52
2022/06/08 07:22:46;;;;;;;;;;;27.70;91.00;;;;;;5085793;28;20070;-53
2022/06/08 07:25:14;;;;;;;;;;;27.70;90.90;;;;;;5085676;28;19932;-53
2022/06/08 07:27:41;;;;;;;;;;;27.70;90.90;;;;;;5085683;28;19904;-52
2022/06/08 07:30:07;;;;;;;;;;;27.70;90.70;;;;;;5085707;28;19911;-52
2022/06/08 07:32:34;;;;;;;;;;;27.70;90.70;;;;;;5084992;28;19910;-52
2022/06/08 07:35:02;;;;;;;;;;;27.70;90.60;;;;;;5085744;28;19900;-52
2022/06/08 07:37:28;;;;;;;;;;;27.70;90.70;;;;;;5085105;28;19916;-52
2022/06/08 07:39:54;;;;;;;;;;;27.70;90.70;;;;;;5085302;28;20181;-50
2022/06/08 07:42:21;;;;;;;;;;;27.60;90.70;;;;;;5085402;28;20185;-55
2022/06/08 07:44:49;;;;;;;;;;;27.70;90.70;;;;;;5085098;28;19940;-53
2022/06/08 07:47:16;;;;;;;;;;;27.60;90.70;;;;;;5085344;28;19916;-55
2022/06/08 07:49:49;;;;;;;;;;;27.60;90.70;;;;;;5085164;28;19900;-56
2022/06/08 07:52:17;;;;;;;;;;;27.60;90.70;;;;;;5085330;28;20149;-56
2022/06/08 07:54:44;;;;;;;;;;;27.60;90.60;;;;;;5085350;28;19900;-55
2022/06/08 07:57:15;;;;;;;;;;;27.60;90.50;;;;;;5084979;28;20197;-55
2022/06/08 07:59:41;;;;;;;;;;;27.60;90.50;;;;;;5084977;28;19900;-52
2022/06/08 08:02:08;;;;;;;;;;;27.50;90.40;;;;;;5084849;28;20188;-54
2022/06/08 08:04:34;;;;;;;;;;;27.50;90.30;;;;;;5084718;28;20184;-55
2022/06/08 08:07:01;;;;;;;;;;;27.50;90.20;;;;;;5085389;28;20144;-58
2022/06/08 08:09:27;;;;;;;;;;;27.60;90.20;;;;;;5084828;28;19914;-54
2022/06/08 08:11:54;;;;;;;;;;;27.50;90.10;;;;;;5085162;28;20107;-55
2022/06/08 08:14:21;;;;;;;;;;;27.50;89.90;;;;;;5084709;28;20251;-56
2022/06/08 08:16:48;;;;;;;;;;;27.50;90.00;;;;;;5085209;28;20211;-53
2022/06/08 08:19:17;;;;;;;;;;;27.50;89.70;;;;;;5084465;28;19908;-57
2022/06/08 08:21:44;;;;;;;;;;;27.50;89.50;;;;;;5085040;28;19967;-57
2022/06/08 08:24:10;;;;;;;;;;;27.40;89.30;;;;;;5084819;28;19975;-57
2022/06/08 08:26:36;;;;;;;;;;;27.40;89.20;;;;;;5084956;28;19900;-55
2022/06/08 08:29:03;;;;;;;;;;;27.40;88.70;;;;;;5084744;28;19909;-56
2022/06/08 08:31:29;;;;;;;;;;;27.40;88.60;;;;;;5084967;28;19930;-55
2022/06/08 08:33:56;;;;;;;;;;;27.40;88.60;;;;;;5084509;28;19909;-55
2022/06/08 08:36:22;;;;;;;;;;;27.40;87.70;;;;;;5084685;28;21805;-55
2022/06/08 08:38:48;;;;;;;;;;;27.30;87.80;;;;;;5084850;28;19991;-55
2022/06/08 08:44:04;;;;;;;;;;;27.30;87.20;;;;;;5084552;28;20216;-59
2022/06/08 08:46:36;;;;;;;;;;;27.30;87.00;;;;;;5084537;28;19900;-55
2022/06/08 08:49:11;;;;;;;;;;;27.30;86.70;;;;;;5066403;28;19909;-54
2022/06/08 08:51:42;;;;;;;;;;;27.30;86.60;;;;;;5084791;28;20191;-58
2022/06/08 08:54:17;;;;;;;;;;;27.30;86.40;;;;;;5084452;28;19912;-54
2022/06/08 08:56:43;;;;;;;;;;;27.30;86.20;;;;;;5084614;28;20084;-59
2022/06/08 08:59:17;;;;;;;;;;;27.30;86.10;;;;;;5084318;28;19908;-56
2022/06/08 09:01:45;;;;;;;;;;;27.20;86.10;;;;;;5084637;28;20231;-54
2022/06/08 09:04:29;;;;;;;;;;;27.20;85.90;;;;;;5084137;28;19914;-55
2022/06/08 09:06:56;;;;;;;;;;;27.20;85.80;;;;;;5084823;28;20178;-54
2022/06/08 09:09:32;;;;;;;;;;;27.20;85.40;;;;;;5084013;28;20193;-52
2022/06/08 09:11:59;;;;;;;;;;;27.20;85.10;;;;;;5084541;28;19907;-57
2022/06/08 09:14:43;;;;;;;;;;;27.20;85.00;;;;;;5084385;28;19940;-56
2022/06/08 09:17:17;;;;;;;;;;;27.20;84.80;;;;;;5083785;28;19919;-54
2022/06/08 09:19:46;;;;;;;;;;;27.20;84.50;;;;;;5084235;28;19907;-56
2022/06/08 09:22:13;;;;;;;;;;;27.20;84.40;;;;;;5084008;28;20204;-55
2022/06/08 09:24:41;;;;;;;;;;;27.20;84.60;;;;;;5084145;28;19950;-54
2022/06/08 09:27:13;;;;;;;;;;;27.20;85.00;;;;;;5083946;28;20193;-54
2022/06/08 09:29:59;;;;;;;;;;;27.20;85.10;;;;;;5083831;28;19928;-56
2022/06/08 09:32:33;;;;;;;;;;;27.20;85.00;;;;;;5076677;28;19944;-53
2022/06/08 09:35:01;;;;;;;;;;;27.10;85.00;;;;;;5083833;28;19908;-53
2022/06/08 09:37:28;;;;;;;;;;;27.10;85.30;;;;;;5083921;28;19962;-54
2022/06/08 09:39:55;;;;;;;;;;;27.10;85.40;;;;;;5084154;28;19927;-55
2022/06/08 09:42:42;;;;;;;;;;;27.10;85.60;;;;;;5083705;28;19958;-56
2022/06/08 09:45:30;;;;;;;;;;;27.10;85.40;;;;;;5084106;28;19900;-55
2022/06/08 09:51:28;;;;;;;;;;;27.00;85.40;;;;;;5084050;28;19945;-56
2022/06/08 09:54:12;;;;;;;;;;;27.00;85.50;;;;;;5083858;28;20081;-55
2022/06/08 09:56:41;;;;;;;;;;;27.00;85.40;;;;;;5087717;28;19942;-54
2022/06/08 09:59:40;;;;;;;;;;;27.00;85.50;;;;;;5087806;28;19954;-54
2022/06/08 10:02:09;;;;;;;;;;;27.00;85.50;;;;;;5064489;28;19909;-59
2022/06/08 10:04:47;;;;;;;;;;;26.90;85.60;;;;;;5087575;28;19994;-56
2022/06/08 10:07:40;;;;;;;;;;;26.90;85.60;;;;;;5087283;28;19916;-54
2022/06/08 10:10:15;;;;;;;;;;;26.90;85.90;;;;;;5071196;28;19900;-55
2022/06/08 10:12:58;;;;;;;;;;;26.90;86.60;;;;;;5087420;28;19912;-54
2022/06/08 10:15:27;;;;;;;;;;;26.90;87.50;;;;;;5087020;28;19901;-53
2022/06/08 10:17:57;;;;;;;;;;;26.90;88.20;;;;;;5086980;28;20112;-53
2022/06/08 10:20:37;;;;;;;;;;;26.80;88.70;;;;;;5087060;28;19930;-53
2022/06/08 10:23:19;;;;;;;;;;;26.80;89.60;;;;;;5086806;28;19916;-54
2022/06/08 10:25:47;;;;;;;;;;;26.80;90.10;;;;;;5087373;28;19900;-56
2022/06/08 10:28:19;;;;;;;;;;;26.70;90.30;;;;;;5086778;28;20007;-53
2022/06/08 10:31:06;;;;;;;;;;;26.70;90.40;;;;;;5086394;28;19900;-53
2022/06/08 10:33:37;;;;;;;;;;;26.70;90.60;;;;;;5086814;28;19909;-56
2022/06/08 10:36:03;;;;;;;;;;;26.70;90.80;;;;;;5080957;28;19935;-54
2022/06/08 10:38:35;;;;;;;;;;;26.70;90.80;;;;;;5066440;28;19912;-54
2022/06/08 10:41:04;;;;;;;;;;;26.70;90.90;;;;;;5066662;28;19916;-53
2022/06/08 10:43:31;;;;;;;;;;;26.60;90.90;;;;;;5066476;28;19956;-53
2022/06/08 10:46:03;;;;;;;;;;;26.60;90.90;;;;;;5066573;28;19905;-55
2022/06/08 10:48:34;;;;;;;;;;;26.60;91.00;;;;;;5066268;28;19943;-49
2022/06/08 10:51:20;;;;;;;;;;;26.60;91.10;;;;;;5066484;28;19966;-54
2022/06/08 10:56:35;;;;;;;;;;;26.60;91.10;;;;;;5066558;28;19915;-54
2022/06/08 10:59:07;;;;;;;;;;;26.60;91.00;;;;;;5066255;28;19905;-53
2022/06/08 11:01:33;;;;;;;;;;;26.60;91.00;;;;;;5067169;28;19905;-61
2022/06/08 11:04:02;;;;;;;;;;;26.60;91.10;;;;;;5066368;28;20097;-55
2022/06/08 11:06:47;;;;;;;;;;;26.50;91.10;;;;;;5065118;28;19904;-58
2022/06/08 11:09:20;;;;;;;;;;;26.50;91.20;;;;;;5065168;28;20149;-53
2022/06/08 11:11:49;;;;;;;;;;;26.50;91.20;;;;;;5065618;28;19905;-55
2022/06/08 11:16:42;;;;;;;7.40;2.28;;;26.50;91.30;;;;;;5122565;27;20392;-56
2022/06/08 11:19:17;;;;;;;10.68;2.10;;;26.30;91.70;;;;;;5122387;28;20070;-56
2022/06/08 11:21:49;;;;;;;8.18;1.80;;;26.30;91.60;;;;;;5122228;28;20086;-56
2022/06/08 11:24:28;;;;;;;7.10;1.52;;;26.30;91.80;;;;;;5122099;28;20011;-58
2022/06/08 11:27:10;;;;;;;5.78;1.48;;;26.40;91.70;;;;;;5120533;28;20020;-54
2022/06/08 11:29:42;;;;;;;8.60;2.00;;;26.30;91.70;;;;;;5119984;28;20019;-56
2022/06/08 11:32:33;;;;;;;9.20;1.60;;;26.30;91.80;;;;;;5119822;28;20023;-55
2022/06/08 11:35:15;;;;;;;6.07;1.90;;;26.30;91.80;;;;;;5119705;28;20035;-59
2022/06/08 11:37:51;;;;;;;7.05;1.75;;;26.30;91.80;;;;;;5120209;28;20368;-56
2022/06/08 11:40:29;;;;;;;10.63;1.85;;;26.30;91.90;;;;;;5120040;28;20377;-56
2022/06/08 11:43:18;;;;;;;8.27;1.67;;;26.30;92.00;;;;;;5121535;28;20316;-55
2022/06/08 11:45:52;;;;;;;6.03;1.67;;;26.30;92.00;;;;;;5122174;27;20031;-55
2022/06/08 11:48:21;;;;;;;7.07;1.85;;;26.30;92.00;;;;;;5121298;28;20095;-56
2022/06/08 11:50:48;;;;;;;11.05;1.98;;;26.30;92.00;;;;;;5121731;28;20059;-55
2022/06/08 11:53:30;;;;;;;10.80;2.22;;;26.30;92.10;;;;;;5121413;28;20020;-55
2022/06/08 11:56:30;;;;;;;9.23;1.92;;;26.30;92.10;;;;;;5122105;28;20023;-55
2022/06/08 11:59:02;;;;;;;10.57;2.63;;;26.30;92.20;;;;;;5121460;28;20172;-66
2022/06/08 12:01:42;;;;;;;11.45;2.45;;;26.30;92.30;;;;;;5121478;28;20190;-57
2022/06/08 12:04:14;;;;;;;6.95;2.22;;;26.30;92.20;;;;;;5121112;28;20026;-55
2022/06/08 12:06:44;;;;;;;10.85;2.40;;;26.30;92.20;;;;;;5121293;28;20020;-55
2022/06/08 12:09:20;;;;;;;8.00;2.72;;;26.30;92.30;;;;;;5120990;28;20020;-55
2022/06/08 12:11:51;;;;;;;12.32;2.88;;;26.30;92.30;;;;;;5120951;28;20312;-56
2022/06/08 12:14:23;;;;;;;8.63;2.33;;;26.30;92.30;;;;;;5120676;28;20024;-56
2022/06/08 12:17:03;;;;;;;9.18;2.40;;;26.30;92.40;;;;;;5121127;28;20031;-56
2022/06/08 12:19:40;;;;;;;9.63;2.40;;;26.30;92.40;;;;;;5121152;28;20027;-57
2022/06/08 12:22:25;;;;;;;11.23;2.70;;;26.30;92.40;;;;;;5120838;28;20016;-56
2022/06/08 12:25:13;;;;;;;11.50;3.17;;;26.30;92.50;;;;;;5120924;28;20030;-59
2022/06/08 12:27:59;;;;;;;11.02;2.50;;;26.30;92.50;;;;;;5108778;28;20042;-57
2022/06/08 12:30:32;;;;;;;10.20;2.80;;;26.30;92.50;;;;;;5107475;28;20131;-57
2022/06/08 12:33:04;;;;;;;11.18;3.13;;;26.30;92.70;;;;;;5106839;28;20027;-56
2022/06/08 12:35:36;;;;;;;10.27;2.70;;;26.30;92.60;;;;;;5107409;28;20091;-57
2022/06/08 12:38:09;;;;;;;;;;;26.30;92.50;;;;;;5107016;28;20028;-60
2022/06/08 12:40:35;;;;;;;11.15;2.90;;;26.20;92.60;;;;;;5107168;28;19908;-58
2022/06/08 12:43:10;;;;;;;10.82;3.45;;;26.20;92.70;;;;;;5106860;28;20024;-56
2022/06/08 12:45:46;;;;;;;14.70;4.18;;;26.20;92.70;;;;;;5106786;28;20331;-59
2022/06/08 12:48:39;;;;;;;15.00;4.90;;;26.20;92.90;;;;;;5107038;28;20024;-55
2022/06/08 12:51:57;;;;;;;12.80;3.72;;;26.20;92.90;;;;;;5106909;28;20069;-56
2022/06/08 12:54:29;;;;;;;14.45;4.28;;;26.10;92.80;;;;;;5073425;28;20044;-57
2022/06/08 12:57:09;;;;;;;15.77;4.50;;;26.10;92.90;;;;;;5106430;28;20016;-52
2022/06/08 12:59:37;;;;;;;13.18;4.10;;;26.10;92.90;;;;;;5106489;28;20028;-56
2022/06/08 13:02:31;;;;;;;15.95;4.05;;;26.10;92.90;;;;;;5106376;28;20040;-56
2022/06/08 13:05:00;;;;;;;12.02;3.00;;;26.10;92.90;;;;;;5106406;28;20035;-56
2022/06/08 13:07:30;;;;;;;10.93;2.97;;;26.10;92.90;;;;;;5106089;28;20062;-56
2022/06/08 13:09:58;;;;;;;13.05;2.25;;;26.10;92.90;;;;;;5106742;28;20031;-58
2022/06/08 13:12:33;;;;;;;8.48;2.20;;;26.10;92.90;;;;;;5106161;28;20060;-56
2022/06/08 13:15:01;;;;;;;10.38;2.42;;;26.10;92.90;;;;;;5106130;28;20059;-56
2022/06/08 13:17:28;;;;;;;13.52;2.97;;;26.10;92.90;;;;;;5106126;28;20012;-58
2022/06/08 13:19:58;;;;;;;12.75;2.53;;;26.10;92.90;;;;;;5106537;28;20024;-57
2022/06/08 13:22:26;;;;;;;13.75;2.78;;;26.10;92.90;;;;;;5106176;28;20023;-57
2022/06/08 13:24:53;;;;;;;10.57;2.60;;;26.00;92.90;;;;;;5106189;28;20032;-56
2022/06/08 13:27:20;;;;;;;10.68;2.90;;;26.00;92.90;;;;;;5106051;28;20012;-57
2022/06/08 13:29:47;;;;;;;9.90;2.67;;;26.00;92.90;;;;;;5105822;28;20370;-57
2022/06/08 13:32:17;;;;;;;7.85;2.35;;;26.00;92.90;;;;;;5105848;28;20028;-56
2022/06/08 13:34:45;;;;;;;8.40;2.35;;;26.00;92.90;;;;;;5105688;28;20028;-55
2022/06/08 13:37:23;;;;;;;8.90;2.20;;;26.00;92.90;;;;;;5105916;28;20012;-56
2022/06/08 13:39:50;;;;;;;10.07;2.65;;;26.00;93.00;;;;;;5105112;28;20087;-57
2022/06/08 13:42:18;;;;;;;8.73;2.78;;;26.00;93.10;;;;;;5105520;28;20012;-57
2022/06/08 13:44:50;;;;;;;9.02;3.15;;;26.00;93.10;;;;;;5105564;28;20218;-61
2022/06/08 13:47:35;;;;;;;13.52;3.90;;;26.00;93.10;;;;;;5105530;28;20027;-56
2022/06/08 13:50:08;;;;;;;10.13;3.42;;;26.00;93.20;;;;;;5105263;28;20104;-56
2022/06/08 13:52:36;;;;;;;9.48;3.03;;;25.90;93.20;;;;;;5105357;28;20043;-56
2022/06/08 13:55:16;;;;;;;7.72;2.40;;;25.90;93.20;;;;;;5105273;28;20220;-57
2022/06/08 13:57:43;;;;;;;10.45;2.60;;;25.90;93.30;;;;;;5105137;28;20027;-57
2022/06/08 14:00:10;;;;;;;6.55;2.40;;;25.90;93.30;;;;;;5105153;28;20200;-57
2022/06/08 14:02:40;;;;;;;6.68;2.28;;;25.90;93.30;;;;;;5105292;28;20016;-60
2022/06/08 14:05:08;;;;;;;7.43;2.33;;;25.90;93.30;;;;;;5105240;28;20098;-56
2022/06/08 14:13:17;;;;;;;6.78;2.22;;;25.90;93.30;;;;;;5085404;28;20325;-56
2022/06/08 14:15:45;;;;;;;7.43;2.13;;;25.80;93.30;;;;;;5104775;28;20071;-56
2022/06/08 14:18:27;;;;;;;6.43;1.63;;;25.80;93.20;;;;;;5104583;28;20316;-56
2022/06/08 14:20:55;;;;;;;5.63;2.13;;;25.70;93.20;;;;;;5105364;28;20239;-56
2022/06/08 14:23:22;;;;;;;3.75;1.65;;;25.70;93.30;;;;;;5104569;28;20020;-54
2022/06/08 14:25:50;;;;;;;5.80;1.88;;;25.70;93.30;;;;;;5105138;28;20031;-58
2022/06/08 14:28:17;;;;;;;6.82;2.05;;;25.70;93.40;;;;;;5104711;28;20016;-57
2022/06/08 14:30:45;;;;;;;5.93;2.00;;;25.70;93.40;;;;;;5104834;28;20204;-59
2022/06/08 14:33:32;;;;;;;6.75;2.13;;;25.80;93.40;;;;;;5104605;28;20099;-54